Terminal Aerodrome Forecast
Issued by NWS

Home | Current Version | Previous Version | Graphics & Text | Print | Product List | Glossary Off
Versions: 1 2 3 4 5 6 7 8 9 10 11 12 13 14 15 16 17 18 19 20 21 22 23 24 25 26

000
FTUS43 KDDC 220520
TAFGCK
TAF
KGCK 220520Z 2206/2306 18013KT P6SM FEW080
      TEMPO 2211/2213 6SM BR
     FM221800 19015G25KT P6SM BKN050
     FM222200 19015G25KT P6SM VCTS BKN030CB=

USA.gov is the U.S. government's official web portal to all federal, state and local government web resources and services.